createdAt,value
2018-08-11T00:00:52.319Z,0
2018-08-11T00:02:08.214Z,0
2018-08-11T00:03:25.115Z,0
2018-08-11T00:04:41.032Z,0
2018-08-11T00:05:56.946Z,0
2018-08-11T00:07:12.868Z,0
2018-08-11T00:08:28.774Z,0
2018-08-11T00:09:44.772Z,0
2018-08-11T00:11:00.663Z,0
2018-08-11T00:12:16.574Z,0
2018-08-11T00:13:32.461Z,0
2018-08-11T00:14:48.357Z,0
2018-08-11T00:16:04.264Z,0
2018-08-11T00:17:20.249Z,0
2018-08-11T00:18:36.166Z,0
2018-08-11T00:19:52.088Z,0
2018-08-11T00:21:08.063Z,0
2018-08-11T00:22:25.048Z,0
2018-08-11T00:23:40.993Z,0
2018-08-11T00:24:56.910Z,0
2018-08-11T00:26:12.806Z,0
2018-08-11T00:27:28.810Z,0
2018-08-11T00:28:44.694Z,0
2018-08-11T00:30:00.580Z,0
2018-08-11T00:31:16.473Z,0
2018-08-11T00:32:32.430Z,0
2018-08-11T00:33:48.389Z,0
2018-08-11T00:35:04.259Z,0
2018-08-11T00:36:20.177Z,0
2018-08-11T00:37:36.114Z,0
2018-08-11T00:38:52.993Z,0
2018-08-11T00:40:08.916Z,0
2018-08-11T00:41:24.838Z,0
2018-08-11T00:42:40.758Z,0
2018-08-11T00:43:56.717Z,0
2018-08-11T00:45:12.728Z,0
2018-08-11T00:46:28.686Z,0
2018-08-11T00:47:44.640Z,0
2018-08-11T00:49:00.613Z,0
2018-08-11T00:50:16.543Z,0
2018-08-11T00:51:32.520Z,0
2018-08-11T00:52:48.448Z,0
2018-08-11T00:54:04.356Z,0
2018-08-11T00:55:20.355Z,0
2018-08-11T00:56:36.267Z,0
2018-08-11T00:57:52.193Z,0
2018-08-11T00:59:08.096Z,0
2018-08-11T01:00:24.091Z,0
2018-08-11T01:01:40.021Z,0
2018-08-11T01:02:55.935Z,0
2018-08-11T01:04:11.908Z,1
2018-08-11T01:05:27.828Z,0
2018-08-11T01:06:43.723Z,0
2018-08-11T01:07:59.647Z,0
2018-08-11T01:09:15.580Z,0
2018-08-11T01:10:31.490Z,0
2018-08-11T01:11:47.425Z,0
2018-08-11T01:13:03.455Z,0
2018-08-11T01:14:19.445Z,0
2018-08-11T01:15:35.327Z,0
2018-08-11T01:16:51.259Z,0
2018-08-11T01:18:07.169Z,0
2018-08-11T01:19:23.133Z,0
2018-08-11T01:20:39.065Z,0
2018-08-11T01:21:54.989Z,0
2018-08-11T01:23:10.899Z,0
2018-08-11T01:24:26.805Z,0
2018-08-11T01:25:42.735Z,0
2018-08-11T01:26:58.724Z,0
2018-08-11T01:28:14.656Z,0
2018-08-11T01:29:31.546Z,0
2018-08-11T01:30:47.447Z,0
2018-08-11T01:32:03.335Z,0
2018-08-11T01:33:19.197Z,0
2018-08-11T01:34:35.151Z,0
2018-08-11T01:35:51.064Z,0
2018-08-11T01:37:06.982Z,0
2018-08-11T01:38:22.878Z,0
2018-08-11T01:39:38.830Z,0
2018-08-11T01:40:54.776Z,0
2018-08-11T01:42:10.712Z,0
2018-08-11T01:43:26.586Z,0
2018-08-11T01:44:42.490Z,0
2018-08-11T01:45:58.430Z,0
2018-08-11T01:47:14.349Z,0
2018-08-11T01:48:30.234Z,0
2018-08-11T01:49:46.136Z,0
2018-08-11T01:51:02.053Z,0
2018-08-11T01:52:17.968Z,0
2018-08-11T01:53:33.851Z,0
2018-08-11T01:54:49.764Z,0
2018-08-11T01:56:06.643Z,0
2018-08-11T01:57:22.547Z,0
2018-08-11T01:58:38.527Z,0
2018-08-11T01:59:54.439Z,0
2018-08-11T02:01:10.348Z,0
2018-08-11T02:02:26.272Z,0
2018-08-11T02:03:42.220Z,0
2018-08-11T02:04:58.115Z,0
2018-08-11T02:06:14.073Z,0
2018-08-11T02:07:29.957Z,0
2018-08-11T02:08:45.945Z,0
2018-08-11T02:10:01.842Z,0
2018-08-11T02:11:17.750Z,0
2018-08-11T02:12:33.646Z,0
2018-08-11T02:13:49.577Z,0
2018-08-11T02:15:05.504Z,0
2018-08-11T02:16:21.408Z,0
2018-08-11T02:17:37.285Z,0
2018-08-11T02:18:53.177Z,0
2018-08-11T02:20:09.058Z,0
2018-08-11T02:21:24.950Z,0
2018-08-11T02:22:40.831Z,0
2018-08-11T02:23:56.814Z,0
2018-08-11T02:25:12.740Z,0
2018-08-11T02:26:28.618Z,0
2018-08-11T02:27:44.564Z,0
2018-08-11T02:29:00.572Z,0
2018-08-11T02:30:16.439Z,0
2018-08-11T02:31:32.300Z,0
2018-08-11T02:32:48.234Z,0
2018-08-11T02:34:04.182Z,0
2018-08-11T02:35:20.073Z,0
2018-08-11T02:36:35.977Z,0
2018-08-11T02:37:51.893Z,0
2018-08-11T02:39:08.104Z,0
2018-08-11T02:40:24.214Z,0
2018-08-11T02:41:40.125Z,0
2018-08-11T02:42:56.056Z,0
2018-08-11T02:44:11.924Z,0
2018-08-11T02:45:27.872Z,0
2018-08-11T02:46:43.759Z,0
2018-08-11T02:47:59.696Z,0
2018-08-11T02:49:15.633Z,0
2018-08-11T02:50:31.544Z,0
2018-08-11T02:51:47.461Z,0
2018-08-11T02:53:03.327Z,0
2018-08-11T02:54:19.225Z,0
2018-08-11T02:55:35.164Z,0
2018-08-11T02:56:51.080Z,0
2018-08-11T02:58:06.960Z,0
2018-08-11T02:59:22.860Z,0
2018-08-11T03:00:38.845Z,0
2018-08-11T03:01:54.753Z,0
2018-08-11T03:03:10.664Z,0
2018-08-11T03:04:26.521Z,0
2018-08-11T03:05:42.438Z,0
2018-08-11T03:06:58.342Z,0
2018-08-11T03:08:14.254Z,0
2018-08-11T03:09:30.163Z,0
2018-08-11T03:10:46.052Z,0
2018-08-11T03:12:02.019Z,0
2018-08-11T03:13:17.896Z,0
2018-08-11T03:14:33.869Z,0
2018-08-11T03:15:49.773Z,0
2018-08-11T03:17:05.684Z,0
2018-08-11T03:18:21.575Z,0
2018-08-11T03:19:37.458Z,0
2018-08-11T03:20:53.338Z,0
2018-08-11T03:22:09.283Z,0
2018-08-11T03:23:25.195Z,0
2018-08-11T03:24:41.198Z,1
2018-08-11T03:25:57.067Z,1
2018-08-11T03:27:13.033Z,0
2018-08-11T03:28:29.947Z,1
2018-08-11T03:29:45.840Z,1
2018-08-11T03:31:01.724Z,1
2018-08-11T03:32:17.583Z,1
2018-08-11T03:33:33.532Z,1
2018-08-11T03:34:49.416Z,1
2018-08-11T03:36:05.348Z,1
2018-08-11T03:37:21.265Z,1
2018-08-11T03:38:37.139Z,1
2018-08-11T03:39:53.022Z,1
2018-08-11T03:41:08.952Z,1
2018-08-11T03:42:24.836Z,1
2018-08-11T03:43:40.752Z,2
2018-08-11T03:44:56.669Z,2
2018-08-11T03:46:12.542Z,2
2018-08-11T03:47:28.405Z,3
2018-08-11T03:48:44.306Z,3
2018-08-11T03:50:00.239Z,4
2018-08-11T03:51:16.130Z,5
2018-08-11T03:52:32.049Z,6
2018-08-11T03:53:47.940Z,8
2018-08-11T03:55:03.863Z,10
2018-08-11T03:56:19.744Z,11
2018-08-11T03:57:35.655Z,14
2018-08-11T03:58:51.580Z,17
2018-08-11T04:00:07.502Z,20
2018-08-11T04:01:23.519Z,23
2018-08-11T04:02:39.414Z,28
2018-08-11T04:03:55.308Z,32
2018-08-11T04:05:11.220Z,37
2018-08-11T04:06:27.130Z,44
2018-08-11T04:07:43.078Z,50
2018-08-11T04:08:58.967Z,56
2018-08-11T04:10:14.844Z,63
2018-08-11T04:11:30.745Z,75
2018-08-11T04:12:46.690Z,92
2018-08-11T04:14:02.581Z,111
2018-08-11T04:15:18.443Z,132
2018-08-11T04:16:34.438Z,152
2018-08-11T04:17:50.487Z,169
2018-08-11T04:19:06.380Z,186
2018-08-11T04:20:22.265Z,203
2018-08-11T04:21:38.360Z,218
2018-08-11T04:22:54.272Z,232
2018-08-11T04:24:10.195Z,248
2018-08-11T04:25:26.064Z,268
2018-08-11T04:26:41.969Z,290
2018-08-11T04:27:57.865Z,311
2018-08-11T04:29:13.767Z,324
2018-08-11T04:30:29.647Z,331
2018-08-11T04:31:45.557Z,343
2018-08-11T04:33:01.489Z,353
2018-08-11T04:34:17.451Z,365
2018-08-11T04:35:33.507Z,376
2018-08-11T04:36:49.430Z,388
2018-08-11T04:38:05.308Z,405
2018-08-11T04:39:21.238Z,417
2018-08-11T04:40:37.195Z,425
2018-08-11T04:41:53.137Z,430
2018-08-11T04:43:08.991Z,448
2018-08-11T04:44:24.868Z,459
2018-08-11T04:45:40.762Z,475
2018-08-11T04:46:56.682Z,494
2018-08-11T04:48:12.567Z,503
2018-08-11T04:49:28.494Z,506
2018-08-11T04:50:44.437Z,519
2018-08-11T04:52:00.358Z,553
2018-08-11T04:53:16.250Z,616
2018-08-11T04:54:32.186Z,656
2018-08-11T04:55:48.077Z,647
2018-08-11T04:57:04.021Z,657
2018-08-11T04:58:19.941Z,661
2018-08-11T04:59:35.849Z,635
2018-08-11T05:00:51.829Z,666
2018-08-11T05:02:07.662Z,756
2018-08-11T05:03:24.581Z,825
2018-08-11T05:04:40.547Z,883
2018-08-11T05:05:56.471Z,957
2018-08-11T05:07:12.376Z,1007
2018-08-11T05:08:28.271Z,1063
2018-08-11T05:09:44.204Z,1144
2018-08-11T05:11:00.106Z,1133
2018-08-11T05:12:16.188Z,1112
2018-08-11T05:13:32.109Z,1117
2018-08-11T05:14:49.077Z,1137
2018-08-11T05:16:05.003Z,1189
2018-08-11T05:17:21.006Z,1252
2018-08-11T05:18:36.932Z,1203
2018-08-11T05:19:52.896Z,1185
2018-08-11T05:21:08.810Z,1239
2018-08-11T05:22:24.728Z,1320
2018-08-11T05:23:40.632Z,1352
2018-08-11T05:24:56.571Z,1274
2018-08-11T05:26:12.508Z,1268
2018-08-11T05:27:28.394Z,1270
2018-08-11T05:28:44.320Z,1283
2018-08-11T05:30:00.273Z,1299
2018-08-11T05:31:16.182Z,1329
2018-08-11T05:32:32.111Z,1374
2018-08-11T05:33:48.110Z,1440
2018-08-11T05:35:04.044Z,1563
2018-08-11T05:36:19.974Z,1654
2018-08-11T05:37:35.912Z,1802
2018-08-11T05:38:51.841Z,1962
2018-08-11T05:40:07.857Z,1935
2018-08-11T05:41:23.811Z,1901
2018-08-11T05:42:39.748Z,1929
2018-08-11T05:43:55.664Z,1926
2018-08-11T05:45:11.515Z,1903
2018-08-11T05:46:27.477Z,1945
2018-08-11T05:47:43.396Z,2043
2018-08-11T05:48:59.381Z,1922
2018-08-11T05:50:15.471Z,1892
2018-08-11T05:51:32.383Z,1986
2018-08-11T05:52:49.322Z,1912
2018-08-11T05:54:05.256Z,1899
2018-08-11T05:55:21.314Z,1926
2018-08-11T05:56:37.189Z,2009
2018-08-11T05:57:53.123Z,2079
2018-08-11T05:59:09.038Z,2116
2018-08-11T06:00:24.922Z,2117
2018-08-11T06:01:40.913Z,2180
2018-08-11T06:02:56.815Z,2224
2018-08-11T06:04:12.710Z,2254
2018-08-11T06:05:28.695Z,2309
2018-08-11T06:06:44.600Z,2352
2018-08-11T06:08:00.622Z,2405
2018-08-11T06:09:16.524Z,2412
2018-08-11T06:10:32.672Z,2407
2018-08-11T06:11:48.541Z,2503
2018-08-11T06:13:04.440Z,2555
2018-08-11T06:14:20.370Z,2597
2018-08-11T06:15:36.292Z,2510
2018-08-11T06:16:52.197Z,2499
2018-08-11T06:18:08.133Z,2614
2018-08-11T06:19:24.043Z,2590
2018-08-11T06:20:39.914Z,2634
2018-08-11T06:21:55.849Z,2783
2018-08-11T06:23:11.768Z,2880
2018-08-11T06:24:27.626Z,2849
2018-08-11T06:25:43.554Z,2931
2018-08-11T06:26:59.469Z,3032
2018-08-11T06:28:15.429Z,3021
2018-08-11T06:29:31.368Z,3259
2018-08-11T06:30:47.301Z,3340
2018-08-11T06:32:03.261Z,3458
2018-08-11T06:33:19.295Z,3449
2018-08-11T06:34:35.207Z,3546
2018-08-11T06:35:51.258Z,3617
2018-08-11T06:37:07.175Z,3648
2018-08-11T06:38:23.224Z,3869
2018-08-11T06:39:39.152Z,3905
2018-08-11T06:40:55.283Z,3897
2018-08-11T06:42:11.051Z,3844
2018-08-11T06:43:27.012Z,3750
2018-08-11T06:44:42.888Z,3801
2018-08-11T06:45:58.830Z,4053
2018-08-11T06:47:14.808Z,4082
2018-08-11T06:48:30.781Z,4233
2018-08-11T06:49:46.713Z,4177
2018-08-11T06:51:02.694Z,4055
2018-08-11T06:52:18.629Z,4119
2018-08-11T06:53:34.610Z,4312
2018-08-11T06:54:50.567Z,4320
2018-08-11T06:56:06.485Z,4219
2018-08-11T06:57:22.451Z,4183
2018-08-11T06:58:38.365Z,4040
2018-08-11T06:59:54.309Z,3967
2018-08-11T07:01:10.243Z,4035
2018-08-11T07:02:26.156Z,4118
2018-08-11T07:03:42.127Z,4129
2018-08-11T07:04:58.123Z,4160
2018-08-11T07:06:14.181Z,4163
2018-08-11T07:07:30.098Z,4243
2018-08-11T07:08:46.088Z,4323
2018-08-11T07:10:02.059Z,4475
2018-08-11T07:11:18.053Z,4615
2018-08-11T07:12:34.011Z,4634
2018-08-11T07:13:49.924Z,4576
2018-08-11T07:15:05.990Z,4460
2018-08-11T07:16:21.928Z,3941
2018-08-11T07:17:37.848Z,4295
2018-08-11T07:18:53.769Z,4699
2018-08-11T07:20:09.941Z,4916
2018-08-11T07:21:26.015Z,4995
2018-08-11T07:22:41.937Z,4865
2018-08-11T07:23:57.937Z,4793
2018-08-11T07:25:13.847Z,4645
2018-08-11T07:26:29.787Z,4952
2018-08-11T07:27:45.724Z,4941
2018-08-11T07:29:02.664Z,4734
2018-08-11T07:30:18.736Z,4722
2018-08-11T07:31:34.650Z,4737
2018-08-11T07:32:50.590Z,4881
2018-08-11T07:34:06.616Z,5005
2018-08-11T07:37:04.344Z,4994
2018-08-11T07:38:20.252Z,4528
2018-08-11T07:39:36.199Z,4899
2018-08-11T07:40:52.107Z,4774
2018-08-11T07:42:08.063Z,4972
2018-08-11T07:43:24.072Z,4940
2018-08-11T07:44:40.227Z,5119
2018-08-11T07:45:56.155Z,5068
2018-08-11T07:47:12.129Z,5416
2018-08-11T07:48:28.124Z,4741
2018-08-11T07:49:44.037Z,4762
2018-08-11T07:50:59.919Z,5148
2018-08-11T07:52:15.954Z,5152
2018-08-11T07:53:31.885Z,5165
2018-08-11T07:54:47.786Z,5147
2018-08-11T07:56:03.832Z,5144
2018-08-11T07:57:19.743Z,5223
2018-08-11T07:58:35.684Z,5239
2018-08-11T07:59:51.648Z,3450
2018-08-11T08:01:07.568Z,6193
2018-08-11T08:02:23.505Z,6744
2018-08-11T08:03:39.407Z,7146
2018-08-11T08:04:55.335Z,7056
2018-08-11T08:06:11.309Z,7140
2018-08-11T08:10:23.802Z,6583
2018-08-11T08:11:39.714Z,6640
2018-08-11T08:12:55.693Z,6609
2018-08-11T08:14:11.656Z,6530
2018-08-11T08:15:27.610Z,6575
2018-08-11T08:16:43.529Z,6772
2018-08-11T08:17:59.496Z,7147
2018-08-11T08:19:15.407Z,7435
2018-08-11T08:20:31.308Z,7324
2018-08-11T08:21:47.225Z,7134
2018-08-11T08:23:03.177Z,7905
2018-08-11T08:24:19.183Z,8252
2018-08-11T08:25:35.135Z,8104
2018-08-11T08:26:51.146Z,7959
2018-08-11T08:28:07.047Z,8232
2018-08-11T08:29:23.017Z,7636
2018-08-11T08:30:39.049Z,8496
2018-08-11T08:31:54.999Z,8456
2018-08-11T08:33:11.039Z,8578
2018-08-11T08:34:27.018Z,8313
2018-08-11T08:35:43.065Z,7844
2018-08-11T08:36:59.010Z,7594
2018-08-11T08:38:14.974Z,7386
2018-08-11T08:39:30.929Z,7687
2018-08-11T08:40:46.844Z,7840
2018-08-11T08:42:02.777Z,7995
2018-08-11T08:43:18.717Z,7903
2018-08-11T08:44:34.660Z,7908
2018-08-11T08:45:50.635Z,8054
2018-08-11T08:47:06.679Z,8000
2018-08-11T08:48:22.662Z,8208
2018-08-11T08:49:38.628Z,8455
2018-08-11T08:50:54.588Z,8506
2018-08-11T08:52:10.497Z,7970
2018-08-11T08:53:26.510Z,7691
2018-08-11T08:56:23.215Z,7558
2018-08-11T08:57:39.194Z,7788
2018-08-11T08:58:55.131Z,7571
2018-08-11T09:00:11.012Z,8091
2018-08-11T09:01:26.944Z,8142
2018-08-11T09:02:42.912Z,8484
2018-08-11T09:03:58.849Z,8230
2018-08-11T09:05:14.781Z,8051
2018-08-11T09:06:30.691Z,7993
2018-08-11T09:07:46.721Z,8057
2018-08-11T09:09:02.686Z,7956
2018-08-11T09:10:18.802Z,8523
2018-08-11T09:11:35.909Z,8595
2018-08-11T09:12:51.860Z,8155
2018-08-11T09:14:07.827Z,7956
2018-08-11T09:15:23.747Z,7868
2018-08-11T09:16:39.733Z,8012
2018-08-11T09:17:55.741Z,8012
2018-08-11T09:19:11.816Z,7876
2018-08-11T09:22:12.472Z,8113
2018-08-11T09:23:28.377Z,8467
2018-08-11T09:24:44.344Z,8448
2018-08-11T09:26:00.355Z,8744
2018-08-11T09:27:16.321Z,8484
2018-08-11T09:28:32.399Z,8271
2018-08-11T09:29:48.359Z,8538
2018-08-11T09:31:04.368Z,9164
2018-08-11T09:32:20.448Z,8678
2018-08-11T09:33:36.423Z,8655
2018-08-11T09:34:52.372Z,8485
2018-08-11T09:36:08.425Z,8892
2018-08-11T09:37:24.472Z,9085
2018-08-11T09:38:40.579Z,9262
2018-08-11T09:39:56.577Z,9426
2018-08-11T09:41:12.653Z,9534
2018-08-11T09:42:28.616Z,9584
2018-08-11T09:43:44.703Z,9842
2018-08-11T09:45:00.621Z,9680
2018-08-11T09:46:16.588Z,9920
2018-08-11T09:47:32.539Z,10385
2018-08-11T09:48:48.591Z,10702
2018-08-11T09:50:04.584Z,10404
2018-08-11T09:51:20.537Z,10140
2018-08-11T09:52:36.624Z,9831
2018-08-11T09:53:52.628Z,9683
2018-08-11T09:55:08.589Z,9655
2018-08-11T09:56:24.657Z,9767
2018-08-11T09:57:40.665Z,10182
2018-08-11T09:58:57.604Z,10206
2018-08-11T10:00:13.801Z,10432
2018-08-11T10:01:29.757Z,10146
2018-08-11T10:02:45.701Z,10129
2018-08-11T10:04:01.723Z,10082
2018-08-11T10:05:17.674Z,10062
2018-08-11T10:06:33.614Z,9839
2018-08-11T10:07:49.576Z,10320
2018-08-11T10:09:05.574Z,10493
2018-08-11T10:10:21.573Z,10629
2018-08-11T10:11:37.509Z,10765
2018-08-11T10:12:53.459Z,10784
2018-08-11T10:14:09.428Z,10352
2018-08-11T10:15:25.401Z,10394
2018-08-11T10:16:41.421Z,10253
2018-08-11T10:17:57.386Z,10406
2018-08-11T10:19:13.336Z,10393
2018-08-11T10:20:29.253Z,10889
2018-08-11T10:21:45.212Z,11011
2018-08-11T10:23:01.149Z,11036
2018-08-11T10:24:17.094Z,10670
2018-08-11T10:25:33.090Z,11039
2018-08-11T10:26:49.044Z,10825
2018-08-11T10:28:05.006Z,10871
2018-08-11T10:29:20.961Z,10854
2018-08-11T10:30:36.961Z,10480
2018-08-11T10:31:52.910Z,10353
2018-08-11T10:33:08.821Z,10691
2018-08-11T10:34:24.758Z,10679
2018-08-11T10:35:40.773Z,10341
2018-08-11T10:36:56.735Z,10651
2018-08-11T10:38:12.677Z,10823
2018-08-11T10:39:28.609Z,11240
2018-08-11T10:40:45.598Z,10635
2018-08-11T10:42:01.534Z,10353
2018-08-11T10:43:17.484Z,10765
2018-08-11T10:44:33.407Z,10783
2018-08-11T10:45:49.581Z,10497
2018-08-11T10:47:05.568Z,10898
2018-08-11T10:48:21.443Z,10916
2018-08-11T10:49:37.425Z,10947
2018-08-11T10:50:53.458Z,11145
2018-08-11T10:52:09.393Z,11379
2018-08-11T10:53:25.384Z,11766
2018-08-11T10:54:41.453Z,11828
2018-08-11T10:55:57.451Z,11791
2018-08-11T10:57:14.425Z,11835
2018-08-11T10:58:30.367Z,11972
2018-08-11T10:59:46.336Z,11985
2018-08-11T11:01:02.342Z,12094
2018-08-11T11:02:18.419Z,12077
2018-08-11T11:03:34.366Z,12100
2018-08-11T11:04:50.360Z,12301
2018-08-11T11:06:06.617Z,11999
2018-08-11T11:07:22.573Z,11873
2018-08-11T11:08:38.509Z,12006
2018-08-11T11:09:54.488Z,12220
2018-08-11T11:11:10.488Z,12318
2018-08-11T11:12:26.442Z,12671
2018-08-11T11:13:42.421Z,12587
2018-08-11T11:14:58.466Z,12514
2018-08-11T11:16:14.479Z,12385
2018-08-11T11:17:30.490Z,12075
2018-08-11T11:18:46.523Z,12256
2018-08-11T11:20:02.505Z,12319
2018-08-11T11:21:18.491Z,12135
2018-08-11T11:22:34.510Z,12056
2018-08-11T11:23:50.467Z,12090
2018-08-11T11:25:06.446Z,12194
2018-08-11T11:26:22.457Z,12195
2018-08-11T11:27:38.409Z,12358
2018-08-11T11:28:54.378Z,12355
2018-08-11T11:30:10.371Z,12230
2018-08-11T11:31:26.416Z,12437
2018-08-11T11:32:42.369Z,12929
2018-08-11T11:33:58.475Z,12774
2018-08-11T11:35:14.577Z,12672
2018-08-11T11:36:30.545Z,12443
2018-08-11T11:37:46.537Z,12543
2018-08-11T11:39:02.483Z,12502
2018-08-11T11:40:18.409Z,12535
2018-08-11T11:41:34.376Z,12621
2018-08-11T11:42:50.360Z,12611
2018-08-11T11:44:06.374Z,12848
2018-08-11T11:45:22.300Z,12717
2018-08-11T11:46:38.245Z,12886
2018-08-11T11:47:54.301Z,12683
2018-08-11T11:49:10.265Z,13198
2018-08-11T11:50:26.270Z,13253
2018-08-11T11:51:42.279Z,13306
2018-08-11T11:52:58.282Z,13087
2018-08-11T11:54:14.244Z,12849
2018-08-11T11:55:30.271Z,12788
2018-08-11T11:56:46.148Z,13099
2018-08-11T11:58:02.143Z,13333
2018-08-11T11:59:18.142Z,13221
2018-08-11T12:00:34.117Z,13405
2018-08-11T12:01:50.085Z,13156
2018-08-11T12:03:06.106Z,12995
2018-08-11T12:04:22.128Z,12815
2018-08-11T12:05:38.080Z,13072
2018-08-11T12:06:54.036Z,13142
2018-08-11T12:08:10.045Z,13129
2018-08-11T12:09:26.044Z,12759
2018-08-11T12:10:42.064Z,12626
2018-08-11T12:11:58.045Z,12784
2018-08-11T12:13:14.032Z,12693
2018-08-11T12:14:30.037Z,12985
2018-08-11T12:15:46.097Z,13043
2018-08-11T12:17:02.027Z,13212
2018-08-11T12:18:18.040Z,13487
2018-08-11T12:19:34.054Z,13761
2018-08-11T12:20:50.029Z,13799
2018-08-11T12:22:05.989Z,13716
2018-08-11T12:23:21.941Z,13267
2018-08-11T12:24:37.965Z,13503
2018-08-11T12:25:53.973Z,13215
2018-08-11T12:27:10.006Z,13298
2018-08-11T12:28:25.964Z,13004
2018-08-11T12:29:42.072Z,12675
2018-08-11T12:30:58.272Z,12297
2018-08-11T12:32:14.265Z,11957
2018-08-11T12:33:30.230Z,11623
2018-08-11T12:34:46.224Z,11509
2018-08-11T12:36:02.221Z,11160
2018-08-11T12:37:18.130Z,10836
2018-08-11T12:38:34.124Z,10388
2018-08-11T12:39:50.141Z,10173
2018-08-11T12:41:06.091Z,9938
2018-08-11T12:42:22.064Z,9601
2018-08-11T12:43:38.084Z,9302
2018-08-11T12:44:54.200Z,9381
2018-08-11T12:46:10.260Z,9205
2018-08-11T12:47:26.228Z,8796
2018-08-11T12:48:42.244Z,8665
2018-08-11T12:49:58.386Z,8468
2018-08-11T12:51:14.513Z,8431
2018-08-11T12:52:30.645Z,8196
2018-08-11T12:53:46.701Z,8127
2018-08-11T12:55:02.862Z,8049
2018-08-11T12:56:18.932Z,8055
2018-08-11T12:57:34.940Z,8033
2018-08-11T12:58:50.892Z,7950
2018-08-11T13:00:06.853Z,7840
2018-08-11T13:01:22.894Z,7651
2018-08-11T13:02:38.904Z,7678
2018-08-11T13:03:54.856Z,7555
2018-08-11T13:05:10.858Z,7227
2018-08-11T13:06:26.899Z,7387
2018-08-11T13:07:42.831Z,7319
2018-08-11T13:08:58.802Z,7302
2018-08-11T13:10:14.733Z,7262
2018-08-11T13:11:30.735Z,7205
2018-08-11T13:12:46.644Z,7159
2018-08-11T13:14:02.629Z,7088
2018-08-11T13:15:18.600Z,7065
2018-08-11T13:16:34.641Z,7019
2018-08-11T13:17:50.570Z,6997
2018-08-11T13:19:06.497Z,6929
2018-08-11T13:20:22.481Z,6972
2018-08-11T13:21:38.433Z,6961
2018-08-11T13:22:54.392Z,6922
2018-08-11T13:24:10.324Z,6907
2018-08-11T13:25:26.258Z,6899
2018-08-11T13:26:42.248Z,6901
2018-08-11T13:27:58.189Z,6929
2018-08-11T13:29:14.148Z,6980
2018-08-11T13:30:30.070Z,6994
2018-08-11T13:31:46.058Z,7076
2018-08-11T13:33:02.046Z,7050
2018-08-11T13:34:18.035Z,7179
2018-08-11T13:35:34.002Z,7207
2018-08-11T13:36:50.002Z,7239
2018-08-11T13:38:06.107Z,7287
2018-08-11T13:39:22.117Z,7338
2018-08-11T13:40:38.135Z,7512
2018-08-11T13:41:54.181Z,7427
2018-08-11T13:43:10.196Z,7492
2018-08-11T13:44:26.164Z,7586
2018-08-11T13:45:42.168Z,7671
2018-08-11T13:46:58.090Z,7647
2018-08-11T13:48:14.077Z,7630
2018-08-11T13:49:30.064Z,7600
2018-08-11T13:50:46.058Z,7878
2018-08-11T13:52:02.070Z,7911
2018-08-11T13:53:18.251Z,7980
2018-08-11T13:54:34.279Z,7972
2018-08-11T13:55:50.305Z,7822
2018-08-11T13:57:06.264Z,7838
2018-08-11T13:58:22.277Z,7758
2018-08-11T13:59:38.478Z,7633
2018-08-11T14:00:55.845Z,7530
2018-08-11T14:03:53.095Z,7423
2018-08-11T14:05:09.812Z,7229
2018-08-11T14:06:25.968Z,7120
2018-08-11T14:07:41.947Z,7007
2018-08-11T14:08:57.936Z,6892
2018-08-11T14:10:13.926Z,6849
2018-08-11T14:11:29.900Z,6801
2018-08-11T14:12:46.101Z,6762
2018-08-11T14:14:02.138Z,6707
2018-08-11T14:15:18.185Z,6650
2018-08-11T14:16:34.172Z,6615
2018-08-11T14:17:50.124Z,6574
2018-08-11T14:19:06.063Z,6559
2018-08-11T14:20:22.159Z,6526
2018-08-11T14:21:38.075Z,6518
2018-08-11T14:22:54.046Z,6483
2018-08-11T14:24:09.989Z,6474
2018-08-11T14:25:25.947Z,6423
2018-08-11T14:26:41.943Z,6357
2018-08-11T14:27:57.904Z,6376
2018-08-11T14:29:13.873Z,6343
2018-08-11T14:30:29.850Z,6297
2018-08-11T14:31:45.801Z,6256
2018-08-11T14:33:01.758Z,6250
2018-08-11T14:34:17.692Z,6220
2018-08-11T14:35:33.710Z,6181
2018-08-11T14:36:49.659Z,6142
2018-08-11T14:38:05.747Z,6073
2018-08-11T14:39:21.722Z,6036
2018-08-11T14:40:37.657Z,5982
2018-08-11T14:41:53.719Z,5914
2018-08-11T14:43:09.716Z,5872
2018-08-11T14:44:25.786Z,5829
2018-08-11T14:45:41.627Z,5777
2018-08-11T14:46:58.641Z,5751
2018-08-11T14:48:14.580Z,5720
2018-08-11T14:49:30.542Z,5697
2018-08-11T14:50:46.508Z,5652
2018-08-11T14:52:02.508Z,5638
2018-08-11T14:53:18.503Z,5630
2018-08-11T14:54:34.443Z,5572
2018-08-11T14:55:50.410Z,5537
2018-08-11T14:57:06.347Z,5520
2018-08-11T14:58:22.352Z,5469
2018-08-11T14:59:38.321Z,5462
2018-08-11T15:00:54.261Z,5443
2018-08-11T15:02:10.203Z,5428
2018-08-11T15:03:26.124Z,5396
2018-08-11T15:04:42.122Z,5379
2018-08-11T15:05:59.154Z,5361
2018-08-11T15:07:15.088Z,5359
2018-08-11T15:08:31.102Z,5304
2018-08-11T15:09:47.167Z,5308
2018-08-11T15:11:03.035Z,5268
2018-08-11T15:12:19.016Z,5265
2018-08-11T15:13:35.972Z,5235
2018-08-11T15:14:51.928Z,5222
2018-08-11T15:16:07.880Z,5200
2018-08-11T15:17:23.849Z,5191
2018-08-11T15:18:39.832Z,5164
2018-08-11T15:19:55.772Z,5134
2018-08-11T15:21:11.709Z,5110
2018-08-11T15:22:27.690Z,5098
2018-08-11T15:23:43.659Z,5087
2018-08-11T15:24:59.643Z,5068
2018-08-11T15:26:15.706Z,5044
2018-08-11T15:27:31.696Z,5016
2018-08-11T15:28:47.762Z,5014
2018-08-11T15:30:03.745Z,4986
2018-08-11T15:31:20.706Z,4971
2018-08-11T15:32:36.648Z,4941
2018-08-11T15:33:52.623Z,4922
2018-08-11T15:35:08.686Z,4894
2018-08-11T15:36:24.622Z,4885
2018-08-11T15:39:21.199Z,4840
2018-08-11T15:40:37.211Z,4804
2018-08-11T15:41:53.175Z,4798
2018-08-11T15:43:10.197Z,4790
2018-08-11T15:44:26.177Z,4749
2018-08-11T15:45:42.253Z,4743
2018-08-11T15:46:58.190Z,4717
2018-08-11T15:48:14.185Z,4712
2018-08-11T15:49:30.204Z,4697
2018-08-11T15:50:46.155Z,4664
2018-08-11T15:52:02.153Z,4663
2018-08-11T15:53:18.145Z,4636
2018-08-11T15:54:34.097Z,4607
2018-08-11T15:55:50.059Z,4591
2018-08-11T15:57:06.153Z,4552
2018-08-11T15:58:22.182Z,4534
2018-08-11T15:59:38.355Z,4502
2018-08-11T16:00:54.342Z,4483
2018-08-11T16:02:10.326Z,4441
2018-08-11T16:03:26.361Z,4422
2018-08-11T16:04:42.322Z,4396
2018-08-11T16:05:58.312Z,4354
2018-08-11T16:07:14.285Z,4341
2018-08-11T16:08:30.282Z,4325
2018-08-11T16:09:46.371Z,4296
2018-08-11T16:11:02.321Z,4268
2018-08-11T16:12:18.319Z,4235
2018-08-11T16:13:34.404Z,4205
2018-08-11T16:14:50.537Z,4170
2018-08-11T16:16:06.659Z,4149
2018-08-11T16:17:22.716Z,4109
2018-08-11T16:18:38.693Z,4081
2018-08-11T16:19:54.650Z,4058
2018-08-11T16:21:10.680Z,4027
2018-08-11T16:22:26.862Z,3995
2018-08-11T16:23:42.791Z,3976
2018-08-11T16:24:58.788Z,3942
2018-08-11T16:26:14.730Z,3910
2018-08-11T16:27:30.813Z,3876
2018-08-11T16:28:46.855Z,3861
2018-08-11T16:30:03.807Z,3820
2018-08-11T16:31:19.773Z,3797
2018-08-11T16:32:35.795Z,3766
2018-08-11T16:33:51.890Z,3730
2018-08-11T16:35:07.878Z,3702
2018-08-11T16:36:24.033Z,3687
2018-08-11T16:37:42.035Z,3641
2018-08-11T16:38:58.061Z,3622
2018-08-11T16:40:14.110Z,3576
2018-08-11T16:41:30.247Z,3545
2018-08-11T16:42:46.385Z,3513
2018-08-11T16:44:02.421Z,3488
2018-08-11T16:45:18.406Z,3451
2018-08-11T16:46:34.402Z,3425
2018-08-11T16:47:50.547Z,3387
2018-08-11T16:49:06.452Z,3347
2018-08-11T16:50:22.491Z,3315
2018-08-11T16:51:38.484Z,2640
2018-08-11T16:52:54.426Z,3238
2018-08-11T16:54:10.401Z,1969
2018-08-11T16:55:26.389Z,3200
2018-08-11T16:56:42.348Z,3173
2018-08-11T16:57:58.397Z,3136
2018-08-11T16:59:14.380Z,3099
2018-08-11T17:00:30.342Z,3054
2018-08-11T17:01:46.328Z,3014
2018-08-11T17:03:02.398Z,2974
2018-08-11T17:04:18.395Z,2937
2018-08-11T17:05:34.385Z,2888
2018-08-11T17:06:50.414Z,2838
2018-08-11T17:08:06.466Z,2730
2018-08-11T17:09:22.442Z,2651
2018-08-11T17:10:38.375Z,2711
2018-08-11T17:11:54.449Z,2656
2018-08-11T17:13:10.401Z,2619
2018-08-11T17:14:26.453Z,2577
2018-08-11T17:15:42.318Z,2482
2018-08-11T17:16:58.341Z,2457
2018-08-11T17:18:14.399Z,2411
2018-08-11T17:19:30.394Z,2416
2018-08-11T17:20:46.465Z,2420
2018-08-11T17:24:59.388Z,2306
2018-08-11T17:26:16.512Z,2273